Time;durP1;ratioP1;P1;durP2;ratioP2;P2;SDS_P1;SDS_P2;PMS_P1;PMS_P2;Temp;Humidity;BMP_temperature;BMP_pressure;BME280_temperature;BME280_humidity;BME280_pressure;Samples;Min_cycle;Max_cycle;Signal;HPM_P1;HPM_P2
2022/10/10 00:02:17;;;;;;;7.28;4.50;;;;;;;;;;5061302;28;20052;-67
2022/10/10 00:04:43;;;;;;;6.13;4.07;;;;;;;;;;5059655;28;20064;-67
2022/10/10 00:07:09;;;;;;;8.73;4.55;;;;;;;;;;5060402;28;20056;-67
2022/10/10 00:09:36;;;;;;;5.72;4.63;;;;;;;;;;5060389;28;20057;-68
2022/10/10 00:12:02;;;;;;;7.30;4.78;;;;;;;;;;5059494;28;21029;-67
2022/10/10 00:14:28;;;;;;;5.85;4.68;;;;;;;;;;5059704;28;20507;-67
2022/10/10 00:16:57;;;;;;;10.02;4.30;;;;;;;;;;5055222;28;20080;-67
2022/10/10 00:19:24;;;;;;;7.30;4.53;;;;;;;;;;5054072;28;20064;-67
2022/10/10 00:21:50;;;;;;;5.50;4.13;;;;;;;;;;5057382;28;20057;-67
2022/10/10 00:24:16;;;;;;;9.77;4.05;;;;;;;;;;5061439;28;20053;-67
2022/10/10 00:26:42;;;;;;;5.78;4.05;;;;;;;;;;5060137;28;20087;-69
2022/10/10 00:29:09;;;;;;;7.75;4.57;;;;;;;;;;5057152;28;20534;-68
2022/10/10 00:31:35;;;;;;;5.70;4.05;;;;;;;;;;5053006;28;20049;-67
2022/10/10 00:34:01;;;;;;;5.63;4.40;;;;;;;;;;5058440;28;20496;-67
2022/10/10 00:36:27;;;;;;;7.32;4.00;;;;;;;;;;5057434;28;20037;-67
2022/10/10 00:38:54;;;;;;;6.15;4.28;;;;;;;;;;5059864;28;20053;-68
2022/10/10 00:41:21;;;;;;;6.85;4.55;;;;;;;;;;5058890;28;20303;-68
2022/10/10 00:44:01;;;;;;;6.75;4.72;;;;;;;;;;5061097;28;20532;-67
2022/10/10 00:46:27;;;;;;;5.50;4.18;;;;;;;;;;5058132;28;20573;-67
2022/10/10 00:48:53;;;;;;;7.05;4.72;;;;;;;;;;5056625;28;20045;-67
2022/10/10 00:51:20;;;;;;;5.40;4.13;;;;;;;;;;5059222;28;20045;-67
2022/10/10 00:53:47;;;;;;;5.47;4.57;;;;;;;;;;5059038;28;20060;-68
2022/10/10 00:56:16;;;;;;;4.95;4.35;;;;;;;;;;5064613;28;20053;-68
2022/10/10 00:58:43;;;;;;;8.27;4.65;;;;;;;;;;5057632;28;20492;-68
2022/10/10 01:01:10;;;;;;;6.63;4.70;;;;;;;;;;5057964;28;20476;-68
2022/10/10 01:03:36;;;;;;;5.75;4.78;;;;;;;;;;5052680;28;20049;-68
2022/10/10 01:06:04;;;;;;;8.52;4.75;;;;;;;;;;5056939;28;20139;-67
2022/10/10 01:08:30;;;;;;;6.85;4.28;;;;;;;;;;5060744;28;20053;-67
2022/10/10 01:11:15;;;;;;;5.90;4.60;;;;;;;;;;5060303;28;20507;-67
2022/10/10 01:13:41;;;;;;;4.97;4.45;;;;;;;;;;5058448;28;20111;-67
2022/10/10 01:16:26;;;;;;;5.85;3.83;;;;;;;;;;5059604;28;20056;-67
2022/10/10 01:18:55;;;;;;;10.35;5.03;;;;;;;;;;5059715;28;20053;-67
2022/10/10 01:21:36;;;;;;;6.32;4.63;;;;;;;;;;5056726;28;20123;-67
2022/10/10 01:24:21;;;;;;;11.60;5.35;;;;;;;;;;5055770;28;20060;-68
2022/10/10 01:26:59;;;;;;;8.73;4.95;;;;;;;;;;5058888;28;20156;-67
2022/10/10 01:29:30;;;;;;;7.68;4.97;;;;;;;;;;5051435;28;20515;-68
2022/10/10 01:32:02;;;;;;;7.25;5.05;;;;;;;;;;5062662;28;20052;-67
2022/10/10 01:34:31;;;;;;;7.45;5.32;;;;;;;;;;5064415;28;20057;-67
2022/10/10 01:37:00;;;;;;;6.47;5.05;;;;;;;;;;5063218;28;20049;-67
2022/10/10 01:39:30;;;;;;;6.78;4.30;;;;;;;;;;5063738;28;20067;-67
2022/10/10 01:42:06;;;;;;;6.65;4.50;;;;;;;;;;5063332;28;20049;-67
2022/10/10 01:44:33;;;;;;;7.05;4.72;;;;;;;;;;5064911;28;20446;-67
2022/10/10 01:46:59;;;;;;;5.47;4.78;;;;;;;;;;5064257;28;20875;-67
2022/10/10 01:49:27;;;;;;;7.32;4.78;;;;;;;;;;5058455;28;21245;-67
2022/10/10 01:51:54;;;;;;;7.13;4.70;;;;;;;;;;5062216;28;20503;-68
2022/10/10 01:54:26;;;;;;;6.95;4.55;;;;;;;;;;5062732;28;20574;-67
2022/10/10 01:57:11;;;;;;;7.78;4.53;;;;;;;;;;5062441;28;20056;-67
2022/10/10 01:59:56;;;;;;;6.45;4.45;;;;;;;;;;5060828;28;20306;-67
2022/10/10 02:02:31;;;;;;;7.68;4.95;;;;;;;;;;5064163;28;20763;-68
2022/10/10 02:05:01;;;;;;;6.10;4.15;;;;;;;;;;5062455;28;20049;-67
2022/10/10 02:07:31;;;;;;;6.03;4.90;;;;;;;;;;5052387;28;20061;-67
2022/10/10 02:09:59;;;;;;;8.27;5.03;;;;;;;;;;5065682;28;20056;-67
2022/10/10 02:12:26;;;;;;;7.28;4.60;;;;;;;;;;5064271;28;20091;-68
2022/10/10 02:14:55;;;;;;;9.50;5.03;;;;;;;;;;5071977;28;20049;-67
2022/10/10 02:17:23;;;;;;;6.05;4.47;;;;;;;;;;5062313;28;20559;-67
2022/10/10 02:19:51;;;;;;;11.10;5.03;;;;;;;;;;5054234;28;20049;-67
2022/10/10 02:22:19;;;;;;;7.05;4.68;;;;;;;;;;5060450;28;20053;-67
2022/10/10 02:24:46;;;;;;;6.60;4.65;;;;;;;;;;5061851;28;20332;-68
2022/10/10 02:27:20;;;;;;;6.72;4.75;;;;;;;;;;5061308;28;20523;-68
2022/10/10 02:29:47;;;;;;;8.30;4.93;;;;;;;;;;5061349;28;20064;-68
2022/10/10 02:32:18;;;;;;;7.30;5.00;;;;;;;;;;5060124;28;20049;-68
2022/10/10 02:34:46;;;;;;;10.43;4.78;;;;;;;;;;5063765;28;20506;-67
2022/10/10 02:37:14;;;;;;;5.65;4.55;;;;;;;;;;5058397;28;20056;-67
2022/10/10 02:39:46;;;;;;;7.80;4.75;;;;;;;;;;5062336;28;20584;-67
2022/10/10 02:42:14;;;;;;;8.70;5.03;;;;;;;;;;5062100;28;20056;-68
2022/10/10 02:44:41;;;;;;;9.82;4.93;;;;;;;;;;5060012;28;20045;-67
2022/10/10 02:47:07;;;;;;;8.77;5.53;;;;;;;;;;5061102;28;20049;-68
2022/10/10 02:49:34;;;;;;;9.80;5.22;;;;;;;;;;5061065;28;20045;-68
2022/10/10 02:52:01;;;;;;;5.68;4.40;;;;;;;;;;5060330;28;20049;-67
2022/10/10 02:54:27;;;;;;;8.43;4.88;;;;;;;;;;5060574;28;20052;-67
2022/10/10 02:56:53;;;;;;;6.15;4.43;;;;;;;;;;5060067;28;20056;-68
2022/10/10 02:59:20;;;;;;;6.07;4.72;;;;;;;;;;5060761;28;20245;-68
2022/10/10 03:01:46;;;;;;;6.05;4.30;;;;;;;;;;5060272;28;20057;-68
2022/10/10 03:04:12;;;;;;;9.32;4.72;;;;;;;;;;5073234;28;20088;-67
2022/10/10 03:06:39;;;;;;;7.95;4.60;;;;;;;;;;5059462;28;20088;-67
2022/10/10 03:09:05;;;;;;;8.38;4.93;;;;;;;;;;5061496;28;20049;-67
2022/10/10 03:11:31;;;;;;;9.52;4.80;;;;;;;;;;5061114;28;20872;-67
2022/10/10 03:13:58;;;;;;;7.05;4.70;;;;;;;;;;5061229;28;20548;-67
2022/10/10 03:16:24;;;;;;;7.13;5.18;;;;;;;;;;5065417;28;20056;-68
2022/10/10 03:18:50;;;;;;;9.68;4.95;;;;;;;;;;5059415;28;20053;-67
2022/10/10 03:21:17;;;;;;;11.35;4.95;;;;;;;;;;5053386;28;20566;-68
2022/10/10 03:23:43;;;;;;;7.22;4.85;;;;;;;;;;5062795;28;20048;-68
2022/10/10 03:26:09;;;;;;;8.20;5.72;;;;;;;;;;5062405;28;20131;-67
2022/10/10 03:28:36;;;;;;;10.70;5.53;;;;;;;;;;5061157;28;20096;-67
2022/10/10 03:31:03;;;;;;;6.40;4.78;;;;;;;;;;5061291;28;20084;-67
2022/10/10 03:33:29;;;;;;;6.63;5.00;;;;;;;;;;5061423;28;20064;-67
2022/10/10 03:35:56;;;;;;;6.32;5.07;;;;;;;;;;5057406;28;20053;-67
2022/10/10 03:38:22;;;;;;;5.93;4.85;;;;;;;;;;5062068;28;21200;-67
2022/10/10 03:40:48;;;;;;;7.72;4.85;;;;;;;;;;5061173;28;20045;-67
2022/10/10 03:43:15;;;;;;;7.40;5.13;;;;;;;;;;5062255;28;20052;-67
2022/10/10 03:45:42;;;;;;;10.98;5.25;;;;;;;;;;5060450;28;20064;-67
2022/10/10 03:48:09;;;;;;;6.65;5.15;;;;;;;;;;5061135;28;20065;-67
2022/10/10 03:50:36;;;;;;;5.90;4.70;;;;;;;;;;5056707;28;20061;-68
2022/10/10 03:53:02;;;;;;;6.90;4.95;;;;;;;;;;5059535;28;20049;-67
2022/10/10 03:55:28;;;;;;;11.00;5.28;;;;;;;;;;5058524;28;20056;-67
2022/10/10 03:57:55;;;;;;;7.45;5.07;;;;;;;;;;5060999;28;20053;-67
2022/10/10 04:00:21;;;;;;;12.98;5.43;;;;;;;;;;5061529;28;20053;-67
2022/10/10 04:02:47;;;;;;;6.55;5.30;;;;;;;;;;5060504;28;20577;-67
2022/10/10 04:05:14;;;;;;;6.38;4.60;;;;;;;;;;5058458;28;21272;-68
2022/10/10 04:07:41;;;;;;;11.35;6.85;;;;;;;;;;5060769;28;20052;-67
2022/10/10 04:10:08;;;;;;;10.30;5.22;;;;;;;;;;5058023;28;20053;-67
2022/10/10 04:12:34;;;;;;;12.05;5.45;;;;;;;;;;5060723;28;20053;-67
2022/10/10 04:15:01;;;;;;;7.93;5.15;;;;;;;;;;5060081;28;20109;-67
2022/10/10 04:17:27;;;;;;;7.85;5.47;;;;;;;;;;5065663;28;20846;-67
2022/10/10 04:19:53;;;;;;;11.77;5.70;;;;;;;;;;5057501;28;20455;-67
2022/10/10 04:22:20;;;;;;;7.07;5.00;;;;;;;;;;5055712;28;20052;-67
2022/10/10 04:24:46;;;;;;;7.00;5.25;;;;;;;;;;5060108;28;20057;-67
2022/10/10 04:27:12;;;;;;;9.70;6.00;;;;;;;;;;5059003;28;20508;-67
2022/10/10 04:29:39;;;;;;;10.20;5.60;;;;;;;;;;5061069;28;20048;-67
2022/10/10 04:32:06;;;;;;;6.07;5.07;;;;;;;;;;5059708;28;20514;-67
2022/10/10 04:34:32;;;;;;;8.35;5.07;;;;;;;;;;5057514;28;20053;-67
2022/10/10 04:36:58;;;;;;;10.40;5.93;;;;;;;;;;5060113;28;20535;-67
2022/10/10 04:39:25;;;;;;;7.82;5.70;;;;;;;;;;5060678;28;20052;-67
2022/10/10 04:41:51;;;;;;;7.10;5.32;;;;;;;;;;5059146;28;20542;-67
2022/10/10 04:44:17;;;;;;;7.95;5.90;;;;;;;;;;5058871;28;21048;-68
2022/10/10 04:46:44;;;;;;;9.15;5.75;;;;;;;;;;5060028;28;20140;-67
2022/10/10 04:49:10;;;;;;;11.55;5.60;;;;;;;;;;5056386;28;20053;-67
2022/10/10 04:51:36;;;;;;;6.93;5.63;;;;;;;;;;5058804;28;20412;-68
2022/10/10 04:54:03;;;;;;;10.65;5.82;;;;;;;;;;5058162;28;20060;-67
2022/10/10 04:56:29;;;;;;;7.60;5.47;;;;;;;;;;5060754;28;20717;-68
2022/10/10 04:58:55;;;;;;;10.80;5.55;;;;;;;;;;5060164;28;20075;-67
2022/10/10 05:01:22;;;;;;;9.07;5.45;;;;;;;;;;5059952;28;20055;-67
2022/10/10 05:03:49;;;;;;;12.20;6.18;;;;;;;;;;5063993;28;20056;-67
2022/10/10 05:06:15;;;;;;;8.88;5.43;;;;;;;;;;5061980;28;20081;-67
2022/10/10 05:08:41;;;;;;;7.97;5.95;;;;;;;;;;5056397;28;20064;-68
2022/10/10 05:11:08;;;;;;;8.07;5.55;;;;;;;;;;5052694;28;20053;-67
2022/10/10 05:13:34;;;;;;;8.13;5.78;;;;;;;;;;5064544;28;20057;-68
2022/10/10 05:16:00;;;;;;;15.38;6.03;;;;;;;;;;5060838;28;20450;-67
2022/10/10 05:18:27;;;;;;;9.13;6.20;;;;;;;;;;5058712;28;20061;-68
2022/10/10 05:20:53;;;;;;;8.25;5.95;;;;;;;;;;5061361;28;20486;-67
2022/10/10 05:23:20;;;;;;;9.93;5.65;;;;;;;;;;5060933;28;21325;-67
2022/10/10 05:25:47;;;;;;;8.80;5.80;;;;;;;;;;5062045;28;20126;-68
2022/10/10 05:28:13;;;;;;;8.10;5.85;;;;;;;;;;5061280;28;20064;-67
2022/10/10 05:30:39;;;;;;;8.40;5.82;;;;;;;;;;5061807;28;20075;-67
2022/10/10 05:33:06;;;;;;;7.57;5.82;;;;;;;;;;5056200;28;20041;-67
2022/10/10 05:35:32;;;;;;;9.20;6.03;;;;;;;;;;5058522;28;20481;-68
2022/10/10 05:37:59;;;;;;;11.48;5.93;;;;;;;;;;5062172;28;20083;-67
2022/10/10 05:40:25;;;;;;;9.60;6.57;;;;;;;;;;5063153;28;20056;-68
2022/10/10 05:42:52;;;;;;;8.77;6.15;;;;;;;;;;5060144;28;20549;-70
2022/10/10 05:45:18;;;;;;;8.93;5.55;;;;;;;;;;5071346;28;20140;-67
2022/10/10 05:47:45;;;;;;;8.18;5.88;;;;;;;;;;5075064;28;20049;-67
2022/10/10 05:50:21;;;;;;;8.40;5.97;;;;;;;;;;5084352;28;20068;-67
2022/10/10 05:52:47;;;;;;;10.38;5.70;;;;;;;;;;5073924;28;20056;-69
2022/10/10 05:55:14;;;;;;;7.05;5.28;;;;;;;;;;5085062;28;20053;-68
2022/10/10 05:57:40;;;;;;;7.47;6.13;;;;;;;;;;5071749;28;20096;-69
2022/10/10 06:00:07;;;;;;;13.55;5.53;;;;;;;;;;5070015;28;20049;-69
2022/10/10 06:02:34;;;;;;;13.85;6.30;;;;;;;;;;5070656;28;20044;-69
2022/10/10 06:05:00;;;;;;;8.32;5.85;;;;;;;;;;5070138;28;20088;-68
2022/10/10 06:07:27;;;;;;;7.53;5.55;;;;;;;;;;5060058;28;20057;-67
2022/10/10 06:10:13;;;;;;;6.70;5.40;;;;;;;;;;5058050;28;20045;-70
2022/10/10 06:12:40;;;;;;;11.23;7.72;;;;;;;;;;5058683;28;20057;-70
2022/10/10 06:15:06;;;;;;;9.65;5.28;;;;;;;;;;5062467;28;20041;-70
2022/10/10 06:17:32;;;;;;;11.82;5.32;;;;;;;;;;5061096;28;20063;-68
2022/10/10 06:19:59;;;;;;;10.95;5.63;;;;;;;;;;5058975;28;20650;-69
2022/10/10 06:22:26;;;;;;;9.25;6.55;;;;;;;;;;5063968;28;20060;-70
2022/10/10 06:24:52;;;;;;;8.85;5.85;;;;;;;;;;5065275;28;20048;-68
2022/10/10 06:27:18;;;;;;;8.88;5.85;;;;;;;;;;5061798;28;20056;-68
2022/10/10 06:29:45;;;;;;;9.93;5.50;;;;;;;;;;5074074;28;20863;-68
2022/10/10 06:32:11;;;;;;;11.50;6.55;;;;;;;;;;5065970;28;21017;-67
2022/10/10 06:34:38;;;;;;;9.75;5.85;;;;;;;;;;5061986;28;20068;-68
2022/10/10 06:37:04;;;;;;;10.15;6.70;;;;;;;;;;5061740;28;20049;-67
2022/10/10 06:39:30;;;;;;;7.45;5.68;;;;;;;;;;5062562;28;20056;-69
2022/10/10 06:41:57;;;;;;;9.00;5.50;;;;;;;;;;5063129;28;20049;-68
2022/10/10 06:44:24;;;;;;;9.70;5.63;;;;;;;;;;5068118;28;20507;-68
2022/10/10 06:46:50;;;;;;;9.30;6.13;;;;;;;;;;5062970;28;20204;-68
2022/10/10 06:49:16;;;;;;;11.30;5.90;;;;;;;;;;5069187;28;20053;-67
2022/10/10 06:51:43;;;;;;;12.27;5.80;;;;;;;;;;5048257;28;20053;-70
2022/10/10 06:54:10;;;;;;;12.32;5.80;;;;;;;;;;5069573;28;20068;-68
2022/10/10 06:56:37;;;;;;;7.82;5.63;;;;;;;;;;5058495;28;20495;-68
2022/10/10 06:59:03;;;;;;;13.88;5.65;;;;;;;;;;5065470;28;20053;-68
2022/10/10 07:01:29;;;;;;;9.45;5.40;;;;;;;;;;5060618;28;20547;-68
2022/10/10 07:03:55;;;;;;;8.05;5.95;;;;;;;;;;5062039;28;20063;-68
2022/10/10 07:06:22;;;;;;;9.10;6.15;;;;;;;;;;5058283;28;20048;-70
2022/10/10 07:08:48;;;;;;;10.55;6.03;;;;;;;;;;5061510;28;20052;-67
2022/10/10 07:11:15;;;;;;;13.40;6.20;;;;;;;;;;5060481;28;20503;-69
2022/10/10 07:13:41;;;;;;;8.80;5.60;;;;;;;;;;5060183;28;20056;-65
2022/10/10 07:16:08;;;;;;;9.95;5.45;;;;;;;;;;5059795;28;20041;-68
2022/10/10 07:18:36;;;;;;;7.32;5.20;;;;;;;;;;5057537;28;20504;-70
2022/10/10 07:21:03;;;;;;;11.23;5.43;;;;;;;;;;5061463;28;20060;-70
2022/10/10 07:23:31;;;;;;;12.68;6.32;;;;;;;;;;5056510;28;20068;-69
2022/10/10 07:26:04;;;;;;;9.80;6.32;;;;;;;;;;5060207;28;20049;-69
2022/10/10 07:28:30;;;;;;;10.80;6.00;;;;;;;;;;5059916;28;20048;-72
2022/10/10 07:30:58;;;;;;;9.50;5.38;;;;;;;;;;5061038;28;20080;-72
2022/10/10 07:33:24;;;;;;;9.73;6.05;;;;;;;;;;5062018;28;20144;-70
2022/10/10 07:35:51;;;;;;;8.55;5.38;;;;;;;;;;5062806;28;20140;-68
2022/10/10 07:38:17;;;;;;;11.07;5.82;;;;;;;;;;5062165;28;20107;-67
2022/10/10 07:40:44;;;;;;;9.80;5.65;;;;;;;;;;5078068;28;20114;-67
2022/10/10 07:43:10;;;;;;;11.32;7.15;;;;;;;;;;5067301;28;20057;-67
2022/10/10 07:45:36;;;;;;;11.05;5.40;;;;;;;;;;5062253;28;20150;-70
2022/10/10 07:48:03;;;;;;;7.93;5.00;;;;;;;;;;5061897;28;20049;-67
2022/10/10 07:50:29;;;;;;;12.10;5.65;;;;;;;;;;5063804;28;20507;-65
2022/10/10 07:52:56;;;;;;;7.78;5.63;;;;;;;;;;5058052;28;20056;-66
2022/10/10 07:55:22;;;;;;;8.35;5.57;;;;;;;;;;5072670;28;20055;-66
2022/10/10 07:57:50;;;;;;;11.93;5.97;;;;;;;;;;5063997;28;20056;-66
2022/10/10 08:00:18;;;;;;;12.38;5.40;;;;;;;;;;5070326;28;20049;-65
2022/10/10 08:02:45;;;;;;;10.68;6.07;;;;;;;;;;5068162;28;20279;-66
2022/10/10 08:05:11;;;;;;;8.00;5.25;;;;;;;;;;5059292;28;20078;-67
2022/10/10 08:07:38;;;;;;;10.35;5.75;;;;;;;;;;5061931;28;20045;-66
2022/10/10 08:10:05;;;;;;;7.38;5.70;;;;;;;;;;5062728;28;20049;-68
2022/10/10 08:12:31;;;;;;;10.45;5.55;;;;;;;;;;5066837;28;20060;-67
2022/10/10 08:14:58;;;;;;;13.43;6.15;;;;;;;;;;5073734;28;20056;-67
2022/10/10 08:17:24;;;;;;;9.68;5.40;;;;;;;;;;5082724;28;20052;-67
2022/10/10 08:19:51;;;;;;;10.60;5.53;;;;;;;;;;5062412;28;20407;-65
2022/10/10 08:22:17;;;;;;;11.18;5.97;;;;;;;;;;5071727;28;20549;-67
2022/10/10 08:24:43;;;;;;;11.18;6.07;;;;;;;;;;5071711;28;20500;-68
2022/10/10 08:27:09;;;;;;;10.07;6.00;;;;;;;;;;5076581;28;20049;-68
2022/10/10 08:29:36;;;;;;;11.45;5.65;;;;;;;;;;5082490;28;20514;-69
2022/10/10 08:32:02;;;;;;;11.43;5.18;;;;;;;;;;5062941;28;20049;-69
2022/10/10 08:34:28;;;;;;;10.43;5.03;;;;;;;;;;5063310;28;20511;-68
2022/10/10 08:36:55;;;;;;;17.52;6.32;;;;;;;;;;5057359;28;20049;-69
2022/10/10 08:39:21;;;;;;;6.03;4.95;;;;;;;;;;5057014;28;20053;-68
2022/10/10 08:41:54;;;;;;;8.48;5.10;;;;;;;;;;5062578;28;20041;-67
2022/10/10 08:44:23;;;;;;;9.45;5.03;;;;;;;;;;5069382;28;20664;-67
2022/10/10 08:47:06;;;;;;;8.40;5.70;;;;;;;;;;5060939;28;20054;-67
2022/10/10 08:49:36;;;;;;;8.43;5.10;;;;;;;;;;5060344;28;20048;-68
2022/10/10 08:52:06;;;;;;;15.30;5.45;;;;;;;;;;5062157;28;20049;-67
2022/10/10 08:54:33;;;;;;;7.80;5.15;;;;;;;;;;5056335;28;20056;-71
2022/10/10 08:57:02;;;;;;;8.55;5.13;;;;;;;;;;5064520;28;20058;-69
2022/10/10 08:59:32;;;;;;;9.55;5.03;;;;;;;;;;5056650;28;20802;-68
2022/10/10 09:02:21;;;;;;;9.35;4.97;;;;;;;;;;5061227;28;20053;-67
2022/10/10 09:04:51;;;;;;;9.88;4.78;;;;;;;;;;5062336;28;20064;-66
2022/10/10 09:07:17;;;;;;;8.35;5.20;;;;;;;;;;5060981;28;20060;-67
2022/10/10 09:09:47;;;;;;;6.70;4.97;;;;;;;;;;5061077;28;20057;-68
2022/10/10 09:12:25;;;;;;;9.43;5.35;;;;;;;;;;5066094;28;20060;-68
2022/10/10 09:14:51;;;;;;;9.68;5.13;;;;;;;;;;5080918;28;20044;-69
2022/10/10 09:17:35;;;;;;;6.93;4.93;;;;;;;;;;5061862;28;20049;-67
2022/10/10 09:20:08;;;;;;;14.68;6.25;;;;;;;;;;5060567;28;20060;-65
2022/10/10 09:22:40;;;;;;;12.10;5.78;;;;;;;;;;5060979;28;20080;-67
2022/10/10 09:25:15;;;;;;;9.38;4.90;;;;;;;;;;5060528;28;20059;-65
2022/10/10 09:27:46;;;;;;;10.23;4.65;;;;;;;;;;5061799;28;20065;-66
2022/10/10 09:30:19;;;;;;;9.80;6.18;;;;;;;;;;5060493;28;20431;-66
2022/10/10 09:33:02;;;;;;;9.52;5.75;;;;;;;;;;5059398;28;20060;-67
2022/10/10 09:35:33;;;;;;;7.10;4.90;;;;;;;;;;5057888;28;20053;-66
2022/10/10 09:38:19;;;;;;;9.27;5.72;;;;;;;;;;5068962;28;20053;-67
2022/10/10 09:41:05;;;;;;;9.00;5.38;;;;;;;;;;5067636;28;20048;-67
2022/10/10 09:43:33;;;;;;;11.95;5.90;;;;;;;;;;5019541;28;20049;-70
2022/10/10 09:45:59;;;;;;;9.38;6.25;;;;;;;;;;5061907;28;20590;-67
2022/10/10 09:48:31;;;;;;;12.40;5.38;;;;;;;;;;5068460;28;20053;-67
2022/10/10 09:50:58;;;;;;;10.20;5.70;;;;;;;;;;5066652;28;20055;-66
2022/10/10 09:53:25;;;;;;;7.20;5.15;;;;;;;;;;5065924;28;20139;-66
2022/10/10 09:55:52;;;;;;;10.68;5.60;;;;;;;;;;5066089;28;20060;-68
2022/10/10 09:58:37;;;;;;;11.68;5.43;;;;;;;;;;5063217;28;20051;-67
2022/10/10 10:01:17;;;;;;;10.00;5.07;;;;;;;;;;5064442;28;20057;-66
2022/10/10 10:04:02;;;;;;;8.82;5.13;;;;;;;;;;5062928;28;20049;-66
2022/10/10 10:06:43;;;;;;;12.40;5.63;;;;;;;;;;5061782;28;20063;-66
2022/10/10 10:09:14;;;;;;;9.55;5.63;;;;;;;;;;5065707;28;20492;-66
2022/10/10 10:11:40;;;;;;;6.72;5.28;;;;;;;;;;5065951;28;20064;-66
2022/10/10 10:14:18;;;;;;;8.13;5.40;;;;;;;;;;5063183;28;20053;-67
2022/10/10 10:16:44;;;;;;;7.75;5.63;;;;;;;;;;5064510;28;20048;-66
2022/10/10 10:19:29;;;;;;;15.20;5.60;;;;;;;;;;5063173;28;20056;-67
2022/10/10 10:21:56;;;;;;;7.93;5.80;;;;;;;;;;5061705;28;20473;-67
2022/10/10 10:24:27;;;;;;;11.30;5.10;;;;;;;;;;5064082;28;20136;-66
2022/10/10 10:26:54;;;;;;;9.80;5.35;;;;;;;;;;5062222;28;20057;-66
2022/10/10 10:29:26;;;;;;;10.32;5.32;;;;;;;;;;5063540;28;20056;-67
2022/10/10 10:32:11;;;;;;;12.75;5.43;;;;;;;;;;5077834;28;20140;-67
2022/10/10 10:34:37;;;;;;;9.48;5.20;;;;;;;;;;5084859;28;20044;-67
2022/10/10 10:37:16;;;;;;;12.85;5.07;;;;;;;;;;5083420;28;20773;-67
2022/10/10 10:39:45;;;;;;;11.45;6.00;;;;;;;;;;5083503;28;20061;-67
2022/10/10 10:42:15;;;;;;;11.02;5.70;;;;;;;;;;5075279;28;20056;-66
2022/10/10 10:44:46;;;;;;;7.45;5.28;;;;;;;;;;5072766;28;20062;-67
2022/10/10 10:47:15;;;;;;;11.63;5.22;;;;;;;;;;5066746;28;20048;-67
2022/10/10 10:49:59;;;;;;;9.80;5.53;;;;;;;;;;5062604;28;20057;-66
2022/10/10 10:52:32;;;;;;;13.15;5.65;;;;;;;;;;5063323;28;20111;-66
2022/10/10 10:55:01;;;;;;;8.25;5.50;;;;;;;;;;5063371;28;20073;-66
2022/10/10 10:57:39;;;;;;;10.55;5.50;;;;;;;;;;5063094;28;20062;-66
2022/10/10 11:00:28;;;;;;;12.18;5.70;;;;;;;;;;5051339;28;20499;-66
2022/10/10 11:03:24;;;;;;;8.57;5.82;;;;;;;;;;5064577;28;20073;-65
2022/10/10 11:06:10;;;;;;;17.70;7.43;;;;;;;;;;5082010;28;20103;-66
2022/10/10 11:08:37;;;;;;;10.35;5.10;;;;;;;;;;5064900;28;20053;-68
2022/10/10 11:11:09;;;;;;;9.40;5.38;;;;;;;;;;5061891;28;20374;-68
2022/10/10 11:13:35;;;;;;;6.78;4.95;;;;;;;;;;5061422;28;20763;-66
2022/10/10 11:16:09;;;;;;;12.25;5.55;;;;;;;;;;5062816;28;20064;-66
2022/10/10 11:19:02;;;;;;;10.50;5.00;;;;;;;;;;5070422;28;20053;-68
2022/10/10 11:21:31;;;;;;;14.48;5.13;;;;;;;;;;5064908;28;20103;-70
2022/10/10 11:24:01;;;;;;;9.73;5.25;;;;;;;;;;5073781;28;20916;-68
2022/10/10 11:26:35;;;;;;;8.50;4.60;;;;;;;;;;5058438;28;21938;-67
2022/10/10 11:29:04;;;;;;;12.50;5.97;;;;;;;;;;5061166;28;20055;-65
2022/10/10 11:31:35;;;;;;;5.68;4.35;;;;;;;;;;5063068;28;20045;-66
2022/10/10 11:34:05;;;;;;;8.05;4.80;;;;;;;;;;5063381;28;20080;-65
2022/10/10 11:36:33;;;;;;;11.43;5.50;;;;;;;;;;5063014;28;20053;-66
2022/10/10 11:39:09;;;;;;;10.50;5.15;;;;;;;;;;5062619;28;20052;-65
2022/10/10 11:41:48;;;;;;;10.18;5.35;;;;;;;;;;5062111;28;20434;-65
2022/10/10 11:44:20;;;;;;;13.43;6.05;;;;;;;;;;5053870;28;20056;-65
2022/10/10 11:47:05;;;;;;;8.85;5.15;;;;;;;;;;5064113;28;20514;-64
2022/10/10 11:49:37;;;;;;;10.48;5.90;;;;;;;;;;5067871;28;20053;-65
2022/10/10 11:52:15;;;;;;;17.15;6.22;;;;;;;;;;5048630;28;20068;-68
2022/10/10 11:55:05;;;;;;;14.18;6.50;;;;;;;;;;5055867;28;20053;-69
2022/10/10 11:57:35;;;;;;;13.38;6.07;;;;;;;;;;5061041;28;20140;-67
2022/10/10 12:00:04;;;;;;;9.85;5.95;;;;;;;;;;5068702;28;20051;-68
2022/10/10 12:02:35;;;;;;;10.05;5.80;;;;;;;;;;5060220;28;20045;-67
2022/10/10 12:05:04;;;;;;;14.15;7.40;;;;;;;;;;5062087;28;20064;-65
2022/10/10 12:07:39;;;;;;;16.75;6.35;;;;;;;;;;5060870;28;20060;-67
2022/10/10 12:10:14;;;;;;;12.90;6.80;;;;;;;;;;5060337;28;20055;-71
2022/10/10 12:12:43;;;;;;;9.07;6.00;;;;;;;;;;5060493;28;20056;-69
2022/10/10 12:15:16;;;;;;;10.43;6.45;;;;;;;;;;5060121;28;20066;-67
2022/10/10 12:17:43;;;;;;;12.38;6.38;;;;;;;;;;5060880;28;20052;-68
2022/10/10 12:20:13;;;;;;;12.45;6.93;;;;;;;;;;5058194;28;20529;-66
2022/10/10 12:22:39;;;;;;;10.68;6.43;;;;;;;;;;5062240;28;20271;-66
2022/10/10 12:25:23;;;;;;;18.38;8.40;;;;;;;;;;5081174;28;20053;-66
2022/10/10 12:28:04;;;;;;;15.27;6.57;;;;;;;;;;5067711;28;20601;-65
2022/10/10 12:30:30;;;;;;;13.00;7.07;;;;;;;;;;5070786;28;20052;-69
2022/10/10 12:32:57;;;;;;;13.55;7.68;;;;;;;;;;5060538;28;20052;-66
2022/10/10 12:35:26;;;;;;;11.57;7.18;;;;;;;;;;5062486;28;20511;-66
2022/10/10 12:38:07;;;;;;;11.55;7.10;;;;;;;;;;5070139;28;20054;-66
2022/10/10 12:40:54;;;;;;;13.15;7.03;;;;;;;;;;5051249;28;20057;-66
2022/10/10 12:43:24;;;;;;;10.27;6.75;;;;;;;;;;5066683;28;20091;-66
2022/10/10 12:45:54;;;;;;;20.83;8.30;;;;;;;;;;5074853;28;20608;-66
2022/10/10 12:48:21;;;;;;;16.90;7.80;;;;;;;;;;5070154;28;20052;-67
2022/10/10 12:50:56;;;;;;;11.98;7.45;;;;;;;;;;5057501;28;20860;-66
2022/10/10 12:53:23;;;;;;;15.43;8.00;;;;;;;;;;5056447;28;20045;-67
2022/10/10 12:55:54;;;;;;;13.93;7.35;;;;;;;;;;5061628;28;20080;-66
2022/10/10 12:58:21;;;;;;;11.63;7.72;;;;;;;;;;5059968;28;20076;-66
2022/10/10 13:00:54;;;;;;;12.38;7.45;;;;;;;;;;5062856;28;20483;-67
2022/10/10 13:03:29;;;;;;;12.63;6.28;;;;;;;;;;5058862;28;20094;-67
2022/10/10 13:05:57;;;;;;;12.52;6.93;;;;;;;;;;5059329;28;20318;-66
2022/10/10 13:08:25;;;;;;;10.82;6.28;;;;;;;;;;5060754;28;20053;-66
2022/10/10 13:11:06;;;;;;;11.43;6.63;;;;;;;;;;5072376;28;20049;-65
2022/10/10 13:13:32;;;;;;;12.23;6.22;;;;;;;;;;5064761;28;20053;-67
2022/10/10 13:16:03;;;;;;;9.93;5.53;;;;;;;;;;5058874;28;20115;-66
2022/10/10 13:18:40;;;;;;;11.45;5.32;;;;;;;;;;5064536;28;20048;-65
2022/10/10 13:21:08;;;;;;;8.57;4.85;;;;;;;;;;5062092;28;20057;-65
2022/10/10 13:23:35;;;;;;;9.27;4.65;;;;;;;;;;5077198;28;20090;-67
2022/10/10 13:26:02;;;;;;;9.23;5.38;;;;;;;;;;5069288;28;20045;-66
2022/10/10 13:28:28;;;;;;;11.77;5.43;;;;;;;;;;5066928;28;20049;-66
2022/10/10 13:30:55;;;;;;;8.13;4.13;;;;;;;;;;5068860;28;20552;-65
2022/10/10 13:33:24;;;;;;;7.45;4.28;;;;;;;;;;5065849;28;20052;-65
2022/10/10 13:35:50;;;;;;;7.60;4.32;;;;;;;;;;5062493;28;20753;-66
2022/10/10 13:38:18;;;;;;;7.40;3.50;;;;;;;;;;5072124;28;20056;-66
2022/10/10 13:40:45;;;;;;;9.40;3.33;;;;;;;;;;5070200;28;20053;-65
2022/10/10 13:43:15;;;;;;;8.90;2.75;;;;;;;;;;5061325;28;20053;-65
2022/10/10 13:46:02;;;;;;;3.45;1.63;;;;;;;;;;5063018;28;20083;-66
2022/10/10 13:48:31;;;;;;;3.45;1.13;;;;;;;;;;5066130;28;20056;-68
2022/10/10 13:51:04;;;;;;;3.97;1.10;;;;;;;;;;5070927;28;20522;-67
2022/10/10 13:53:41;;;;;;;0.50;0.50;;;;;;;;;;5059815;28;20068;-69
2022/10/10 13:56:07;;;;;;;3.13;0.60;;;;;;;;;;5062611;28;20060;-68
2022/10/10 13:58:45;;;;;;;2.15;0.60;;;;;;;;;;5063452;28;20045;-68
2022/10/10 14:01:17;;;;;;;3.28;0.82;;;;;;;;;;5060556;28;20052;-68
2022/10/10 14:03:47;;;;;;;1.80;0.63;;;;;;;;;;5070384;28;20127;-67
2022/10/10 14:06:22;;;;;;;5.68;1.00;;;;;;;;;;5060790;28;20501;-67
2022/10/10 14:08:49;;;;;;;2.00;0.60;;;;;;;;;;5065183;28;20507;-68
2022/10/10 14:11:17;;;;;;;5.82;0.85;;;;;;;;;;5062222;28;20041;-67
2022/10/10 14:13:47;;;;;;;4.53;0.75;;;;;;;;;;5080521;28;20060;-66
2022/10/10 14:16:16;;;;;;;3.70;1.02;;;;;;;;;;5069738;28;20762;-68
2022/10/10 14:18:43;;;;;;;3.53;1.17;;;;;;;;;;5066407;28;20057;-68
2022/10/10 14:21:09;;;;;;;5.35;1.10;;;;;;;;;;5074165;28;20049;-68
2022/10/10 14:23:36;;;;;;;3.03;1.17;;;;;;;;;;5063919;28;20391;-67
2022/10/10 14:26:03;;;;;;;6.88;1.50;;;;;;;;;;5061744;28;20057;-68
2022/10/10 14:28:30;;;;;;;6.32;1.17;;;;;;;;;;5074781;28;20115;-69
2022/10/10 14:30:57;;;;;;;8.27;1.77;;;;;;;;;;5063428;28;20111;-69
2022/10/10 14:33:24;;;;;;;6.60;1.05;;;;;;;;;;5061058;28;20057;-67
2022/10/10 14:35:51;;;;;;;7.75;1.15;;;;;;;;;;5067066;28;20051;-67
2022/10/10 14:38:17;;;;;;;10.07;1.60;;;;;;;;;;5058109;28;20088;-69
2022/10/10 14:40:44;;;;;;;5.68;2.13;;;;;;;;;;5057278;28;20053;-69
2022/10/10 14:43:12;;;;;;;14.50;1.60;;;;;;;;;;5060189;28;20049;-69
2022/10/10 14:45:38;;;;;;;3.35;1.58;;;;;;;;;;5060682;28;20057;-70
2022/10/10 14:48:04;;;;;;;11.07;1.38;;;;;;;;;;5062175;28;20060;-69
2022/10/10 14:50:32;;;;;;;9.73;1.65;;;;;;;;;;5059239;28;20045;-68
2022/10/10 14:52:59;;;;;;;9.48;1.83;;;;;;;;;;5057073;28;20507;-68